createdAt,value
2017-06-22T00:00:57.398Z,1002.13
2017-06-22T00:03:22.093Z,1002.13
2017-06-22T00:05:46.791Z,1002.09
2017-06-22T00:07:54.517Z,1002.11
2017-06-22T00:10:19.273Z,1002.1
2017-06-22T00:12:35.483Z,1002.07
2017-06-22T00:15:00.182Z,1002.11
2017-06-22T00:17:02.194Z,1002.07
2017-06-22T00:21:03.271Z,1002.08
2017-06-22T00:23:05.304Z,1002.03
2017-06-22T00:25:30.056Z,1002.06
2017-06-22T00:27:54.756Z,1002.05
2017-06-22T00:30:19.447Z,1002.04
2017-06-22T00:32:35.678Z,1002.02
2017-06-22T00:35:00.349Z,1002.01
2017-06-22T00:37:24.941Z,1002.01
2017-06-22T00:39:49.634Z,1002.02
2017-06-22T00:42:14.329Z,1002
2017-06-22T00:44:30.571Z,1002
2017-06-22T00:46:55.229Z,1001.99
2017-06-22T00:49:05.929Z,1001.98
2017-06-22T00:51:22.114Z,1001.95
2017-06-22T00:53:38.284Z,1001.93
2017-06-22T00:56:02.875Z,1001.93
2017-06-22T00:58:27.576Z,1001.92
2017-06-22T01:00:52.163Z,1001.93
2017-06-22T01:03:16.763Z,1002.03
2017-06-22T01:05:32.957Z,1001.96
2017-06-22T01:07:57.547Z,1001.97
2017-06-22T01:09:59.553Z,1001.95
2017-06-22T01:12:24.209Z,1001.93
2017-06-22T01:14:34.766Z,1001.88
2017-06-22T01:16:59.365Z,1001.86
2017-06-22T01:19:23.956Z,1001.87
2017-06-22T01:21:48.536Z,1001.9
2017-06-22T01:24:04.637Z,1001.93
2017-06-22T01:26:29.237Z,1001.9
2017-06-22T01:28:53.761Z,1001.91
2017-06-22T01:31:18.320Z,1001.95
2017-06-22T01:33:34.451Z,1001.89
2017-06-22T01:35:58.999Z,1001.88
2017-06-22T01:38:23.597Z,1001.91
2017-06-22T01:40:39.686Z,1001.93
2017-06-22T01:43:04.289Z,1001.89
2017-06-22T01:45:28.877Z,1001.9
2017-06-22T01:47:45.014Z,1001.86
2017-06-22T01:50:09.562Z,1001.88
2017-06-22T01:52:34.062Z,1001.87
2017-06-22T01:54:58.650Z,1001.84
2017-06-22T01:57:23.151Z,1001.88
2017-06-22T01:59:47.744Z,1001.84
2017-06-22T02:02:12.338Z,1001.87
2017-06-22T02:04:14.330Z,1001.88
2017-06-22T02:06:38.891Z,1001.84
2017-06-22T02:09:03.492Z,1001.84
2017-06-22T02:11:05.602Z,1001.82
2017-06-22T02:13:30.143Z,1001.8
2017-06-22T02:15:54.730Z,1001.83
2017-06-22T02:18:19.332Z,1001.81
2017-06-22T02:20:43.925Z,1001.8
2017-06-22T02:23:00.065Z,1001.85
2017-06-22T02:25:16.119Z,1001.85
2017-06-22T02:27:40.721Z,1001.88
2017-06-22T02:30:05.314Z,1001.9
2017-06-22T02:32:29.892Z,1001.91
2017-06-22T02:34:31.870Z,1001.9
2017-06-22T02:36:56.452Z,1001.87
2017-06-22T02:39:21.046Z,1001.85
2017-06-22T02:41:45.641Z,1001.81
2017-06-22T02:44:10.230Z,1001.8
2017-06-22T02:46:34.716Z,1001.83
2017-06-22T02:48:42.314Z,1001.81
2017-06-22T02:51:06.810Z,1001.85
2017-06-22T02:53:31.300Z,1001.82
2017-06-22T02:55:55.797Z,1001.82
2017-06-22T02:58:20.287Z,1001.83
2017-06-22T03:00:30.819Z,1001.79
2017-06-22T03:02:55.333Z,1001.78
2017-06-22T03:05:11.331Z,1001.75
2017-06-22T03:07:27.325Z,1001.76
2017-06-22T03:09:51.812Z,1001.81
2017-06-22T03:12:16.296Z,1001.89
2017-06-22T03:14:40.788Z,1001.9
2017-06-22T03:17:05.268Z,1001.87
2017-06-22T03:19:29.774Z,1001.8
2017-06-22T03:21:54.264Z,1001.81
2017-06-22T03:24:18.759Z,1001.78
2017-06-22T03:26:43.252Z,1001.82
2017-06-22T03:29:07.748Z,1001.84
2017-06-22T03:31:32.236Z,1001.79
2017-06-22T03:33:34.240Z,1001.79
2017-06-22T03:35:58.800Z,1001.74
2017-06-22T03:38:23.277Z,1001.75
2017-06-22T03:40:47.778Z,1001.77
2017-06-22T03:43:12.269Z,1001.79
2017-06-22T03:45:36.770Z,1001.8
2017-06-22T03:48:01.289Z,1001.8
2017-06-22T03:50:17.313Z,1001.8
2017-06-22T03:52:41.843Z,1001.85
2017-06-22T03:54:57.831Z,1001.88
2017-06-22T03:57:22.329Z,1001.84
2017-06-22T03:59:46.824Z,1001.84
2017-06-22T04:02:11.313Z,1001.86
2017-06-22T04:04:35.798Z,1001.83
2017-06-22T04:07:00.392Z,1001.85
2017-06-22T04:09:24.998Z,1001.84
2017-06-22T04:11:49.592Z,1001.85
2017-06-22T04:14:14.184Z,1001.86
2017-06-22T04:16:30.279Z,1001.88
2017-06-22T04:18:54.894Z,1001.92
2017-06-22T04:21:19.474Z,1001.96
2017-06-22T04:23:44.067Z,1002.04
2017-06-22T04:26:08.677Z,1002.02
2017-06-22T04:28:33.394Z,1002.02
2017-06-22T04:30:58.213Z,1002.09
2017-06-22T04:33:23.127Z,1002.13
2017-06-22T04:35:25.329Z,1002.12
2017-06-22T04:37:50.550Z,1002.16
2017-06-22T04:40:15.876Z,1002.2
2017-06-22T04:42:24.185Z,1002.21
2017-06-22T04:44:49.649Z,1002.18
2017-06-22T04:46:43.379Z,1002.17
2017-06-22T04:49:09.072Z,1002.18
2017-06-22T04:51:35.814Z,1002.25
2017-06-22T04:53:53.110Z,1002.28
2017-06-22T04:56:11.472Z,1002.32
2017-06-22T04:58:13.824Z,1002.28
2017-06-22T05:00:39.836Z,1002.34
2017-06-22T05:02:57.424Z,1002.38
2017-06-22T05:05:23.625Z,1002.38
2017-06-22T05:07:17.497Z,1002.4
2017-06-22T05:09:35.371Z,1002.34
2017-06-22T05:12:01.816Z,1002.29
2017-06-22T05:14:28.367Z,1002.28
2017-06-22T05:16:30.895Z,1002.27
2017-06-22T05:18:57.611Z,1002.34
2017-06-22T05:21:00.111Z,1002.29
2017-06-22T05:23:02.663Z,1002.33
2017-06-22T05:25:29.539Z,1002.41
2017-06-22T05:27:56.498Z,1002.41
2017-06-22T05:29:59.095Z,1002.4
2017-06-22T05:32:26.145Z,1002.42
2017-06-22T05:34:53.209Z,1002.47
2017-06-22T05:37:03.137Z,1002.47
2017-06-22T05:39:30.328Z,1002.48
2017-06-22T05:41:48.996Z,1002.52
2017-06-22T05:44:16.367Z,1002.52
2017-06-22T05:46:43.738Z,1002.55
2017-06-22T05:49:02.512Z,1002.59
2017-06-22T05:51:05.249Z,1002.6
2017-06-22T05:53:32.771Z,1002.63
2017-06-22T05:55:35.480Z,1002.66
2017-06-22T05:58:03.131Z,1002.58
2017-06-22T06:00:30.806Z,1002.63
2017-06-22T06:02:33.660Z,1002.67
2017-06-22T06:05:01.473Z,1002.67
2017-06-22T06:07:29.360Z,1002.64
2017-06-22T06:09:57.226Z,1002.67
2017-06-22T06:12:25.092Z,1002.71
2017-06-22T06:14:52.978Z,1002.68
2017-06-22T06:17:21.989Z,1002.69
2017-06-22T06:19:49.977Z,1002.69
2017-06-22T06:22:18.972Z,1002.72
2017-06-22T06:24:47.052Z,1002.71
2017-06-22T06:26:49.934Z,1002.72
2017-06-22T06:29:09.440Z,1002.67
2017-06-22T06:31:39.658Z,1002.74
2017-06-22T06:34:07.837Z,1002.68
2017-06-22T06:36:37.032Z,1002.68
2017-06-22T06:39:05.214Z,1002.68
2017-06-22T06:41:33.270Z,1002.6
2017-06-22T06:44:01.339Z,1002.59
2017-06-22T06:46:04.247Z,1002.6
2017-06-22T06:48:32.183Z,1002.6
2017-06-22T06:51:00.020Z,1002.62
2017-06-22T06:53:27.779Z,1002.68
2017-06-22T06:55:55.292Z,1002.62
2017-06-22T06:58:22.628Z,1002.6
2017-06-22T07:00:49.867Z,1002.59
2017-06-22T07:03:16.999Z,1002.62
2017-06-22T07:05:43.918Z,1002.6
2017-06-22T07:08:10.862Z,1002.59
2017-06-22T07:10:37.708Z,1002.55
2017-06-22T07:12:55.938Z,1002.64
2017-06-22T07:15:14.064Z,1002.6
2017-06-22T07:17:40.702Z,1002.59
2017-06-22T07:19:58.737Z,1002.61
2017-06-22T07:22:16.786Z,1002.63
2017-06-22T07:24:27.972Z,1002.59
2017-06-22T07:26:54.715Z,1002.52
2017-06-22T07:29:21.462Z,1002.53
2017-06-22T07:31:48.194Z,1002.54
2017-06-22T07:34:14.983Z,1002.54
2017-06-22T07:36:41.650Z,1002.51
2017-06-22T07:39:08.386Z,1002.46
2017-06-22T07:41:35.133Z,1002.51
2017-06-22T07:44:01.905Z,1002.42
2017-06-22T07:46:28.637Z,1002.5
2017-06-22T07:48:55.387Z,1002.47
2017-06-22T07:50:57.455Z,1002.45
2017-06-22T07:53:24.265Z,1002.46
2017-06-22T07:55:51.023Z,1002.45
2017-06-22T07:57:53.120Z,1002.35
2017-06-22T08:00:19.896Z,1002.38
2017-06-22T08:02:46.774Z,1002.3
2017-06-22T08:05:04.999Z,1002.25
2017-06-22T08:07:31.864Z,1002.24
2017-06-22T08:09:58.704Z,1002.26
2017-06-22T08:12:25.642Z,1002.2
2017-06-22T08:14:52.509Z,1002.18
2017-06-22T08:17:19.451Z,1002.19
2017-06-22T08:19:46.409Z,1002.2
2017-06-22T08:21:57.210Z,1002.2
2017-06-22T08:24:24.162Z,1002.17
2017-06-22T08:26:51.682Z,1002.21
2017-06-22T08:29:21.785Z,1002.22
2017-06-22T08:33:25.969Z,1002.1
2017-06-22T08:35:54.934Z,1002.12
2017-06-22T08:38:21.943Z,1002.14
2017-06-22T08:41:05.691Z,1002.08
2017-06-22T08:43:32.724Z,1002.02
2017-06-22T08:47:32.616Z,1002.04
2017-06-22T08:50:15.287Z,1002.05
2017-06-22T08:52:34.541Z,1002
2017-06-22T08:55:17.143Z,1001.99
2017-06-22T08:57:49.760Z,1001.96
2017-06-22T09:00:16.526Z,1001.94
2017-06-22T09:02:43.279Z,1001.96
2017-06-22T09:04:45.923Z,1001.93
2017-06-22T09:07:12.764Z,1001.96
2017-06-22T09:09:39.513Z,1001.96
2017-06-22T09:12:06.343Z,1001.92
2017-06-22T09:14:33.294Z,1001.89
2017-06-22T09:16:35.967Z,1001.89
2017-06-22T09:19:02.786Z,1001.88
2017-06-22T09:21:29.549Z,1001.87
2017-06-22T09:23:56.260Z,1001.85
2017-06-22T09:26:14.670Z,1001.82
2017-06-22T09:28:41.507Z,1001.87
2017-06-22T09:31:08.382Z,1001.86
2017-06-22T09:33:26.317Z,1001.87
2017-06-22T09:35:52.981Z,1001.85
2017-06-22T09:38:04.506Z,1001.92
2017-06-22T09:40:31.295Z,1001.86
2017-06-22T09:42:49.668Z,1001.89
2017-06-22T09:45:16.458Z,1001.87
2017-06-22T09:47:44.084Z,1001.89
2017-06-22T09:49:38.276Z,1001.86
2017-06-22T09:52:04.977Z,1001.89
2017-06-22T09:54:31.739Z,1001.84
2017-06-22T09:56:49.916Z,1001.85
2017-06-22T09:59:08.748Z,1001.86
2017-06-22T10:01:35.419Z,1001.84
2017-06-22T10:05:38.537Z,1001.82
2017-06-22T10:08:05.047Z,1001.78
2017-06-22T10:10:31.513Z,1001.77
2017-06-22T10:12:50.494Z,1001.73
2017-06-22T10:15:16.988Z,1001.67
2017-06-22T10:17:43.309Z,1001.65
2017-06-22T10:19:46.238Z,1001.63
2017-06-22T10:22:04.297Z,1001.63
2017-06-22T10:24:30.815Z,1001.66
2017-06-22T10:26:57.263Z,1001.61
2017-06-22T10:29:23.440Z,1001.57
2017-06-22T10:31:49.657Z,1001.56
2017-06-22T10:34:07.277Z,1001.57
2017-06-22T10:36:33.462Z,1001.54
2017-06-22T10:38:59.649Z,1001.53
2017-06-22T10:41:25.795Z,1001.5
2017-06-22T10:43:51.984Z,1001.39
2017-06-22T10:46:18.132Z,1001.39
2017-06-22T10:48:44.327Z,1001.32
2017-06-22T10:51:10.498Z,1001.28
2017-06-22T10:53:28.095Z,1001.28
2017-06-22T10:55:54.253Z,1001.22
2017-06-22T10:58:21.479Z,1001.16
2017-06-22T11:00:47.755Z,1001.16
2017-06-22T11:03:13.834Z,1001.17
2017-06-22T11:05:39.926Z,1001.17
2017-06-22T11:08:06.005Z,1001.2
2017-06-22T11:10:32.050Z,1001.17
2017-06-22T11:13:00.197Z,1001.18
2017-06-22T11:15:26.414Z,1001.15
2017-06-22T11:17:52.429Z,1001.1
2017-06-22T11:20:18.533Z,1001.1
2017-06-22T11:22:45.052Z,1001.02
2017-06-22T11:25:12.115Z,1001.03
2017-06-22T11:27:38.316Z,1001.07
2017-06-22T11:30:11.623Z,1001.04
2017-06-22T11:32:37.254Z,1001.01
2017-06-22T11:35:09.946Z,1001
2017-06-22T11:37:35.999Z,1000.94
2017-06-22T11:40:02.031Z,1000.88
2017-06-22T11:42:28.070Z,1000.82
2017-06-22T11:44:54.081Z,1000.8
2017-06-22T11:47:20.078Z,1000.74
2017-06-22T11:49:47.096Z,1000.67
2017-06-22T11:52:05.542Z,1000.68
2017-06-22T11:54:14.412Z,1000.47
2017-06-22T11:56:41.369Z,1000.64
2017-06-22T11:59:07.323Z,1000.59
2017-06-22T12:01:24.733Z,1000.6
2017-06-22T12:03:27.121Z,1000.57
2017-06-22T12:05:44.593Z,1000.53
2017-06-22T12:08:02.005Z,1000.48
2017-06-22T12:10:19.431Z,1000.37
2017-06-22T12:12:36.805Z,1000.3
2017-06-22T12:15:02.824Z,1000.25
2017-06-22T12:17:29.846Z,1000.1
2017-06-22T12:19:55.795Z,1000.01
2017-06-22T12:22:04.621Z,999.89
2017-06-22T12:24:30.488Z,999.83
2017-06-22T12:26:56.410Z,999.76
2017-06-22T12:29:22.290Z,999.65
2017-06-22T12:31:48.188Z,999.54
2017-06-22T12:34:14.076Z,999.47
2017-06-22T12:36:39.968Z,999.45
2017-06-22T12:39:05.778Z,999.53
2017-06-22T12:41:31.579Z,999.7
2017-06-22T12:43:57.390Z,999.83
2017-06-22T12:46:23.214Z,999.93
2017-06-22T12:48:49.020Z,1000.09
2017-06-22T12:51:14.782Z,1000.14
2017-06-22T12:53:31.993Z,1000.16
2017-06-22T12:55:59.742Z,1000.16
2017-06-22T12:58:26.501Z,1000.22
2017-06-22T13:00:44.689Z,1000.16
2017-06-22T13:03:10.473Z,1000.16
2017-06-22T13:05:36.199Z,1000.15
2017-06-22T13:08:01.915Z,1000.15
2017-06-22T13:10:27.527Z,1000.06
2017-06-22T13:12:45.629Z,999.82
2017-06-22T13:15:13.276Z,999.77
2017-06-22T13:17:38.865Z,999.74
2017-06-22T13:20:04.454Z,999.79
2017-06-22T13:22:30.052Z,999.92
2017-06-22T13:24:57.599Z,1000.1
2017-06-22T13:27:24.142Z,1000.09
2017-06-22T13:29:50.630Z,1000.12
2017-06-22T13:32:16.071Z,1000.23
2017-06-22T13:34:26.928Z,1000.27
2017-06-22T13:36:53.379Z,1000.29
2017-06-22T13:39:34.646Z,1000.24
2017-06-22T13:42:00.043Z,1000.18
2017-06-22T13:44:25.407Z,1000.15
2017-06-22T13:46:51.806Z,1000.15
2017-06-22T13:49:10.658Z,1000.11
2017-06-22T13:51:36.009Z,999.98
2017-06-22T13:53:46.837Z,999.86
2017-06-22T13:56:13.266Z,999.84
2017-06-22T13:58:21.582Z,999.82
2017-06-22T14:00:23.792Z,999.76
2017-06-22T14:02:40.628Z,999.69
2017-06-22T14:04:57.454Z,999.58
2017-06-22T14:07:08.263Z,999.53
2017-06-22T14:09:34.711Z,999.43
2017-06-22T14:12:00.133Z,999.37
2017-06-22T14:14:25.545Z,999.29
2017-06-22T14:16:50.998Z,999.26
2017-06-22T14:19:16.340Z,999.17
2017-06-22T14:21:42.593Z,999.22
2017-06-22T14:24:08.669Z,999.29
2017-06-22T14:26:34.126Z,999.3
2017-06-22T14:29:01.438Z,999.31
2017-06-22T14:31:26.947Z,999.23
2017-06-22T14:33:53.201Z,999.17
2017-06-22T14:36:18.541Z,999.15
2017-06-22T14:38:47.635Z,999.11
2017-06-22T14:41:13.128Z,999.06
2017-06-22T14:43:56.943Z,999.02
2017-06-22T14:46:22.518Z,998.92
2017-06-22T14:48:48.873Z,998.88
2017-06-22T14:51:14.259Z,998.83
2017-06-22T14:53:40.031Z,998.76
2017-06-22T14:56:05.444Z,998.76
2017-06-22T14:58:32.580Z,998.74
2017-06-22T15:01:00.824Z,998.73
2017-06-22T15:03:26.728Z,998.72
2017-06-22T15:05:52.377Z,998.63
2017-06-22T15:08:17.758Z,998.53
2017-06-22T15:10:43.187Z,998.54
2017-06-22T15:13:09.372Z,998.52
2017-06-22T15:15:35.004Z,998.46
2017-06-22T15:18:00.958Z,998.38
2017-06-22T15:20:26.422Z,998.31
2017-06-22T15:22:51.802Z,998.17
2017-06-22T15:25:17.311Z,998.14
2017-06-22T15:27:42.803Z,998.12
2017-06-22T15:30:08.318Z,998.13
2017-06-22T15:32:33.860Z,998.15
2017-06-22T15:34:59.360Z,998.21
2017-06-22T15:37:16.386Z,998.2
2017-06-22T15:39:41.923Z,998.2
2017-06-22T15:42:07.415Z,998.29
2017-06-22T15:44:32.942Z,998.31
2017-06-22T15:46:58.501Z,998.3
2017-06-22T15:49:24.060Z,998.31
2017-06-22T15:53:26.232Z,998.29
2017-06-22T15:55:51.933Z,998.29
2017-06-22T15:58:17.461Z,998.24
2017-06-22T16:00:43.068Z,998.2
2017-06-22T16:02:53.960Z,998.15
2017-06-22T16:05:11.041Z,998.13
2017-06-22T16:07:37.640Z,998.12
2017-06-22T16:09:54.689Z,998.04
2017-06-22T16:12:20.329Z,997.98
2017-06-22T16:14:45.987Z,997.89
2017-06-22T16:17:11.593Z,997.88
2017-06-22T16:19:37.261Z,997.88
2017-06-22T16:22:02.827Z,997.87
2017-06-22T16:24:28.424Z,997.73
2017-06-22T16:26:54.468Z,997.74
2017-06-22T16:29:20.049Z,997.71
2017-06-22T16:31:46.261Z,997.66
2017-06-22T16:34:11.781Z,997.57
2017-06-22T16:36:37.301Z,997.56
2017-06-22T16:39:03.989Z,997.59
2017-06-22T16:41:29.492Z,997.63
2017-06-22T16:43:46.464Z,997.59
2017-06-22T16:46:03.538Z,997.52
2017-06-22T16:48:29.010Z,997.52
2017-06-22T16:50:39.396Z,997.55
2017-06-22T16:53:04.876Z,997.56
2017-06-22T16:55:30.337Z,997.6
2017-06-22T16:57:55.745Z,997.58
2017-06-22T17:00:21.162Z,997.71
2017-06-22T17:02:46.551Z,997.84
2017-06-22T17:05:11.929Z,997.89
2017-06-22T17:07:37.403Z,997.87
2017-06-22T17:09:54.270Z,997.82
2017-06-22T17:12:11.159Z,997.81
2017-06-22T17:14:36.579Z,997.85
2017-06-22T17:17:01.982Z,997.85
2017-06-22T17:19:27.350Z,997.83
2017-06-22T17:21:52.764Z,997.84
2017-06-22T17:24:09.670Z,997.89
2017-06-22T17:26:11.395Z,997.92
2017-06-22T17:28:36.804Z,997.96
2017-06-22T17:31:02.245Z,997.94
2017-06-22T17:33:19.123Z,997.91
2017-06-22T17:35:44.507Z,997.84
2017-06-22T17:37:46.245Z,997.91
2017-06-22T17:40:11.660Z,997.94
2017-06-22T17:42:36.980Z,997.91
2017-06-22T17:45:02.381Z,997.89
2017-06-22T17:47:27.784Z,997.78
2017-06-22T17:49:53.142Z,997.73
2017-06-22T17:52:18.453Z,997.71
2017-06-22T17:54:20.684Z,997.71
2017-06-22T17:56:46.000Z,997.74
2017-06-22T17:59:11.278Z,997.71
2017-06-22T18:01:36.538Z,997.64
2017-06-22T18:04:01.851Z,997.6
2017-06-22T18:06:27.126Z,997.59
2017-06-22T18:08:52.395Z,997.52
2017-06-22T18:11:17.631Z,997.53
2017-06-22T18:13:42.898Z,997.56
2017-06-22T18:16:08.187Z,997.57
2017-06-22T18:18:33.316Z,997.61
2017-06-22T18:20:58.556Z,997.56
2017-06-22T18:23:23.831Z,997.54
2017-06-22T18:25:49.072Z,997.54
2017-06-22T18:28:05.830Z,997.52
2017-06-22T18:30:31.025Z,997.46
2017-06-22T18:32:56.290Z,997.42
2017-06-22T18:35:22.547Z,997.42
2017-06-22T18:37:47.761Z,997.37
2017-06-22T18:40:13.056Z,997.33
2017-06-22T18:42:38.342Z,997.38
2017-06-22T18:45:04.721Z,997.33
2017-06-22T18:47:29.878Z,997.25
2017-06-22T18:49:55.056Z,997.25
2017-06-22T18:52:20.264Z,997.26
2017-06-22T18:54:45.452Z,997.31
2017-06-22T18:57:10.637Z,997.33
2017-06-22T18:59:35.796Z,997.33
2017-06-22T19:02:00.987Z,997.35
2017-06-22T19:04:26.175Z,997.38
2017-06-22T19:06:34.366Z,997.4
2017-06-22T19:08:51.043Z,997.45
2017-06-22T19:11:16.219Z,997.45
2017-06-22T19:13:41.405Z,997.47
2017-06-22T19:15:58.105Z,997.51
2017-06-22T19:18:25.235Z,997.51
2017-06-22T19:20:50.428Z,997.54
2017-06-22T19:23:15.541Z,997.55
2017-06-22T19:25:40.620Z,997.54
2017-06-22T19:27:59.277Z,997.59
2017-06-22T19:30:24.378Z,997.6
2017-06-22T19:32:36.123Z,997.66
2017-06-22T19:34:46.857Z,997.67
2017-06-22T19:38:39.282Z,997.63
2017-06-22T19:41:04.432Z,997.68
2017-06-22T19:43:29.502Z,997.67
2017-06-22T19:45:31.129Z,997.76
2017-06-22T19:47:56.254Z,997.77
2017-06-22T19:50:12.850Z,997.75
2017-06-22T19:52:37.940Z,997.78
2017-06-22T19:55:04.028Z,997.78
2017-06-22T19:57:20.633Z,997.8
2017-06-22T19:59:37.213Z,997.85
2017-06-22T20:02:02.369Z,997.92
2017-06-22T20:04:27.409Z,997.94
2017-06-22T20:06:52.434Z,997.91
2017-06-22T20:08:54.088Z,997.92
2017-06-22T20:11:31.987Z,997.94
2017-06-22T20:13:57.033Z,997.94
2017-06-22T20:16:13.544Z,997.98
2017-06-22T20:18:38.638Z,998
2017-06-22T20:21:04.650Z,998.02
2017-06-22T20:23:29.667Z,997.97
2017-06-22T20:25:54.636Z,998
2017-06-22T20:28:12.152Z,997.98
2017-06-22T20:30:53.377Z,998.05
2017-06-22T20:33:19.390Z,997.98
2017-06-22T20:35:51.303Z,997.94
2017-06-22T20:38:31.447Z,997.88
2017-06-22T20:40:56.566Z,997.78
2017-06-22T20:43:21.553Z,997.79
2017-06-22T20:45:46.527Z,997.74
2017-06-22T20:47:57.297Z,997.77
2017-06-22T20:50:22.310Z,997.82
2017-06-22T20:52:47.311Z,998
2017-06-22T20:55:03.809Z,998.17
2017-06-22T20:57:28.702Z,998.18
2017-06-22T20:59:52.090Z,998.29
2017-06-22T21:02:08.596Z,998.29
2017-06-22T21:04:33.584Z,998.33
2017-06-22T21:06:58.594Z,998.4
2017-06-22T21:09:23.618Z,998.43
2017-06-22T21:11:49.523Z,998.42
2017-06-22T21:14:14.526Z,998.45
2017-06-22T21:16:16.654Z,998.46
2017-06-22T21:18:42.618Z,998.52
2017-06-22T21:21:07.610Z,998.57
2017-06-22T21:23:32.506Z,998.55
2017-06-22T21:25:43.176Z,998.57
2017-06-22T21:27:59.684Z,998.5
2017-06-22T21:30:24.581Z,998.53
2017-06-22T21:32:49.494Z,998.54
2017-06-22T21:35:00.197Z,998.55
2017-06-22T21:37:25.148Z,998.57
2017-06-22T21:39:50.078Z,998.62
2017-06-22T21:42:14.975Z,998.6
2017-06-22T21:44:39.860Z,998.64
2017-06-22T21:46:41.981Z,998.7
2017-06-22T21:49:06.830Z,998.76
2017-06-22T21:51:17.530Z,998.76
2017-06-22T21:53:42.488Z,998.73
2017-06-22T21:55:58.896Z,998.76
2017-06-22T21:58:23.689Z,998.65
2017-06-22T22:00:48.593Z,998.69
2017-06-22T22:03:04.999Z,998.77
2017-06-22T22:05:29.891Z,998.82
2017-06-22T22:07:54.683Z,998.83
2017-06-22T22:10:19.485Z,998.89
2017-06-22T22:12:44.281Z,998.88
2017-06-22T22:14:52.092Z,998.86
2017-06-22T22:17:08.411Z,998.86
2017-06-22T22:19:24.707Z,998.84
2017-06-22T22:21:40.990Z,998.83
2017-06-22T22:24:05.775Z,998.85
2017-06-22T22:26:30.538Z,998.86
2017-06-22T22:28:55.385Z,998.9
2017-06-22T22:31:20.171Z,998.88
2017-06-22T22:33:44.984Z,998.83
2017-06-22T22:36:09.881Z,998.86
2017-06-22T22:38:34.682Z,998.88
2017-06-22T22:40:59.484Z,998.84
2017-06-22T22:43:24.290Z,998.86
2017-06-22T22:45:49.179Z,998.87
2017-06-22T22:48:13.973Z,998.82
2017-06-22T22:50:38.773Z,998.83
2017-06-22T22:53:03.568Z,998.88
2017-06-22T22:55:14.201Z,998.87
2017-06-22T22:57:39.046Z,998.86
2017-06-22T23:00:03.842Z,998.86
2017-06-22T23:02:28.634Z,998.87
2017-06-22T23:04:44.926Z,998.87
2017-06-22T23:07:09.624Z,998.91
2017-06-22T23:09:34.315Z,998.89
2017-06-22T23:11:59.128Z,998.91
2017-06-22T23:14:23.916Z,998.94
2017-06-22T23:16:48.725Z,998.99
2017-06-22T23:19:13.526Z,999.05
2017-06-22T23:21:38.318Z,999.07
2017-06-22T23:23:54.614Z,999.11
2017-06-22T23:26:19.422Z,999.15
2017-06-22T23:28:35.728Z,999.12
2017-06-22T23:30:46.423Z,999.13
2017-06-22T23:33:11.286Z,999.15
2017-06-22T23:35:36.082Z,999.2
2017-06-22T23:38:00.774Z,999.21
2017-06-22T23:40:25.576Z,999.24
2017-06-22T23:42:50.275Z,999.28
2017-06-22T23:45:15.053Z,999.32
2017-06-22T23:47:25.717Z,999.33
2017-06-22T23:49:50.427Z,999.29
2017-06-22T23:52:06.728Z,999.29
2017-06-22T23:54:31.538Z,999.33
2017-06-22T23:56:56.328Z,999.35
2017-06-22T23:58:58.571Z,999.4
